<?xml version="1.0" encoding="UTF-8" standalone="no" ?>
<gpx xmlns="http://www.topografix.com/GPX/1/1" xmlns:xsi="http://www.w3.org/2001/XMLSchema-instance" xsi:schemaLocation="http://www.topografix.com/GPX/1/1 http://www.topografix.com/GPX/1/1/gpx.xsd" version="1.1" creator="VisuGPX - https://www.visugpx.com">
  <metadata>
    <name>Chemin Jéricho complet</name>
  </metadata>
  <wpt lat="47.86715" lon="0.56593">
    <ele>151</ele>
    <name><![CDATA[Départ place St Anne]]></name>
  </wpt>
  <wpt lat="47.87343" lon="0.58961">
    <ele>107.3</ele>
    <name><![CDATA[Parcour 8.5 Kms]]></name>
  </wpt>
  <wpt lat="47.8664" lon="0.59201">
    <ele>104.1</ele>
    <name><![CDATA[Parcour 10 Kms]]></name>
  </wpt>
  <wpt lat="47.86355" lon="0.5817">
    <ele>152</ele>
    <name><![CDATA[Parcour 10 Kms]]></name>
  </wpt>
  <wpt lat="47.86826" lon="0.57701">
    <ele>157.9</ele>
    <name><![CDATA[Parcour 8.5 Kms]]></name>
  </wpt>
  <wpt lat="47.86715" lon="0.566">
    <ele>150.9</ele>
    <name><![CDATA[Arrivée place St Anne]]></name>
  </wpt>
  <wpt lat="47.86715" lon="0.56593">
    <ele>151</ele>
    <name><![CDATA[Départ place St Anne]]></name>
  </wpt>
  <wpt lat="47.87332" lon="0.58965">
    <ele>107.2</ele>
    <name><![CDATA[Parcour 8.5 Kms]]></name>
  </wpt>
  <wpt lat="47.8664" lon="0.59201">
    <ele>104.1</ele>
    <name><![CDATA[Parcour 10 Kms]]></name>
  </wpt>
  <wpt lat="47.85941" lon="0.60275">
    <ele>150.7</ele>
    <name><![CDATA[Parcour 12.5 Kms]]></name>
  </wpt>
  <wpt lat="47.85634" lon="0.58751">
    <ele>97.6</ele>
    <name><![CDATA[Parcour 12.5 Kms]]></name>
  </wpt>
  <wpt lat="47.86281" lon="0.57874">
    <ele>150.6</ele>
    <name><![CDATA[Parcour 10 Kms]]></name>
  </wpt>
  <wpt lat="47.86826" lon="0.57701">
    <ele>157.9</ele>
    <name><![CDATA[Parcour 8.5 Kms]]></name>
  </wpt>
  <wpt lat="47.86715" lon="0.566">
    <ele>150.9</ele>
    <name><![CDATA[Arrivée place St Anne]]></name>
  </wpt>
  <trk>
    <name><![CDATA[Chemin Jéricho 10 Kms]]></name>
    <extensions>
      <line xmlns="http://www.topografix.com/GPX/gpx_style/0/2">
        <color>0000FF</color>
        <width>4</width>
      </line>
    </extensions>
    <trkseg>
      <trkpt lat="47.86715" lon="0.56593">
        <ele>151</ele>
        <time>2021-09-17T14:21:38+02:00</time>
      </trkpt>
      <trkpt lat="47.86712" lon="0.56578">
        <ele>151</ele>
        <time>2021-09-17T14:21:43+02:00</time>
      </trkpt>
      <trkpt lat="47.86556" lon="0.56342">
        <ele>153</ele>
        <time>2021-09-17T14:21:48+02:00</time>
      </trkpt>
      <trkpt lat="47.86504" lon="0.55914">
        <ele>154</ele>
        <time>2021-09-17T14:21:53+02:00</time>
      </trkpt>
      <trkpt lat="47.86493" lon="0.5587">
        <ele>155</ele>
        <time>2021-09-17T14:21:58+02:00</time>
      </trkpt>
      <trkpt lat="47.8648" lon="0.55834">
        <ele>155</ele>
        <time>2021-09-17T14:22:03+02:00</time>
      </trkpt>
      <trkpt lat="47.86492" lon="0.55806">
        <ele>156</ele>
        <time>2021-09-17T14:22:08+02:00</time>
      </trkpt>
      <trkpt lat="47.86496" lon="0.55744">
        <ele>156</ele>
        <time>2021-09-17T14:22:13+02:00</time>
      </trkpt>
      <trkpt lat="47.86665" lon="0.55757">
        <ele>155</ele>
        <time>2021-09-17T14:22:18+02:00</time>
      </trkpt>
      <trkpt lat="47.86942" lon="0.55643">
        <ele>154</ele>
        <time>2021-09-17T14:22:23+02:00</time>
      </trkpt>
      <trkpt lat="47.87155" lon="0.55538">
        <ele>159</ele>
        <time>2021-09-17T14:22:28+02:00</time>
      </trkpt>
      <trkpt lat="47.8717" lon="0.55532">
        <ele>160</ele>
        <time>2021-09-17T14:22:33+02:00</time>
      </trkpt>
      <trkpt lat="47.87185" lon="0.55531">
        <ele>159</ele>
        <time>2021-09-17T14:22:38+02:00</time>
      </trkpt>
      <trkpt lat="47.87204" lon="0.55529">
        <ele>159</ele>
        <time>2021-09-17T14:22:43+02:00</time>
      </trkpt>
      <trkpt lat="47.87222" lon="0.55536">
        <ele>159</ele>
        <time>2021-09-17T14:22:48+02:00</time>
      </trkpt>
      <trkpt lat="47.87231" lon="0.55551">
        <ele>159</ele>
        <time>2021-09-17T14:22:53+02:00</time>
      </trkpt>
      <trkpt lat="47.8724" lon="0.55575">
        <ele>160</ele>
        <time>2021-09-17T14:22:58+02:00</time>
      </trkpt>
      <trkpt lat="47.87482" lon="0.55653">
        <ele>159</ele>
        <time>2021-09-17T14:23:03+02:00</time>
      </trkpt>
      <trkpt lat="47.87598" lon="0.5568">
        <ele>154</ele>
        <time>2021-09-17T14:23:08+02:00</time>
      </trkpt>
      <trkpt lat="47.87681" lon="0.55678">
        <ele>151</ele>
        <time>2021-09-17T14:23:13+02:00</time>
      </trkpt>
      <trkpt lat="47.87731" lon="0.55666">
        <ele>149</ele>
        <time>2021-09-17T14:23:18+02:00</time>
      </trkpt>
      <trkpt lat="47.87803" lon="0.55666">
        <ele>145</ele>
        <time>2021-09-17T14:23:23+02:00</time>
      </trkpt>
      <trkpt lat="47.8794" lon="0.55548">
        <ele>151</ele>
        <time>2021-09-17T14:23:28+02:00</time>
      </trkpt>
      <trkpt lat="47.87962" lon="0.55547">
        <ele>152</ele>
        <time>2021-09-17T14:23:33+02:00</time>
      </trkpt>
      <trkpt lat="47.87988" lon="0.55552">
        <ele>153</ele>
        <time>2021-09-17T14:23:38+02:00</time>
      </trkpt>
      <trkpt lat="47.88006" lon="0.55566">
        <ele>154</ele>
        <time>2021-09-17T14:23:43+02:00</time>
      </trkpt>
      <trkpt lat="47.88059" lon="0.55612">
        <ele>155</ele>
        <time>2021-09-17T14:23:48+02:00</time>
      </trkpt>
      <trkpt lat="47.881" lon="0.5567">
        <ele>154</ele>
        <time>2021-09-17T14:23:53+02:00</time>
      </trkpt>
      <trkpt lat="47.88273" lon="0.55846">
        <ele>153</ele>
        <time>2021-09-17T14:23:58+02:00</time>
      </trkpt>
      <trkpt lat="47.88319" lon="0.55909">
        <ele>153</ele>
        <time>2021-09-17T14:24:03+02:00</time>
      </trkpt>
      <trkpt lat="47.88345" lon="0.5593">
        <ele>153</ele>
        <time>2021-09-17T14:24:08+02:00</time>
      </trkpt>
      <trkpt lat="47.88379" lon="0.55947">
        <ele>153</ele>
        <time>2021-09-17T14:24:13+02:00</time>
      </trkpt>
      <trkpt lat="47.88462" lon="0.55951">
        <ele>155</ele>
        <time>2021-09-17T14:24:18+02:00</time>
      </trkpt>
      <trkpt lat="47.88534" lon="0.55951">
        <ele>156</ele>
        <time>2021-09-17T14:24:23+02:00</time>
      </trkpt>
      <trkpt lat="47.88598" lon="0.55977">
        <ele>156</ele>
        <time>2021-09-17T14:24:28+02:00</time>
      </trkpt>
      <trkpt lat="47.88653" lon="0.56015">
        <ele>159</ele>
        <time>2021-09-17T14:24:33+02:00</time>
      </trkpt>
      <trkpt lat="47.88724" lon="0.56033">
        <ele>160</ele>
        <time>2021-09-17T14:24:38+02:00</time>
      </trkpt>
      <trkpt lat="47.88639" lon="0.56096">
        <ele>159</ele>
        <time>2021-09-17T14:24:43+02:00</time>
      </trkpt>
      <trkpt lat="47.88687" lon="0.56363">
        <ele>160</ele>
        <time>2021-09-17T14:24:48+02:00</time>
      </trkpt>
      <trkpt lat="47.88698" lon="0.56385">
        <ele>160</ele>
        <time>2021-09-17T14:24:53+02:00</time>
      </trkpt>
      <trkpt lat="47.88694" lon="0.56555">
        <ele>160</ele>
        <time>2021-09-17T14:24:58+02:00</time>
      </trkpt>
      <trkpt lat="47.88702" lon="0.56679">
        <ele>159</ele>
        <time>2021-09-17T14:25:03+02:00</time>
      </trkpt>
      <trkpt lat="47.887" lon="0.56763">
        <ele>157</ele>
        <time>2021-09-17T14:25:08+02:00</time>
      </trkpt>
      <trkpt lat="47.88694" lon="0.5683">
        <ele>156</ele>
        <time>2021-09-17T14:25:13+02:00</time>
      </trkpt>
      <trkpt lat="47.88698" lon="0.5689">
        <ele>156</ele>
        <time>2021-09-17T14:25:18+02:00</time>
      </trkpt>
      <trkpt lat="47.8871" lon="0.56981">
        <ele>154</ele>
        <time>2021-09-17T14:25:23+02:00</time>
      </trkpt>
      <trkpt lat="47.88717" lon="0.57027">
        <ele>154</ele>
        <time>2021-09-17T14:25:28+02:00</time>
      </trkpt>
      <trkpt lat="47.88766" lon="0.57161">
        <ele>155</ele>
        <time>2021-09-17T14:25:33+02:00</time>
      </trkpt>
      <trkpt lat="47.88713" lon="0.57212">
        <ele>155</ele>
        <time>2021-09-17T14:25:38+02:00</time>
      </trkpt>
      <trkpt lat="47.88628" lon="0.57268">
        <ele>153</ele>
        <time>2021-09-17T14:25:43+02:00</time>
      </trkpt>
      <trkpt lat="47.88598" lon="0.57301">
        <ele>150</ele>
        <time>2021-09-17T14:25:48+02:00</time>
      </trkpt>
      <trkpt lat="47.88565" lon="0.57398">
        <ele>148</ele>
        <time>2021-09-17T14:25:53+02:00</time>
      </trkpt>
      <trkpt lat="47.88405" lon="0.57306">
        <ele>132</ele>
        <time>2021-09-17T14:25:58+02:00</time>
      </trkpt>
      <trkpt lat="47.88344" lon="0.57247">
        <ele>132</ele>
        <time>2021-09-17T14:26:03+02:00</time>
      </trkpt>
      <trkpt lat="47.88151" lon="0.5718">
        <ele>145</ele>
        <time>2021-09-17T14:26:08+02:00</time>
      </trkpt>
      <trkpt lat="47.88093" lon="0.57161">
        <ele>149</ele>
        <time>2021-09-17T14:26:13+02:00</time>
      </trkpt>
      <trkpt lat="47.87998" lon="0.57161">
        <ele>151</ele>
        <time>2021-09-17T14:26:18+02:00</time>
      </trkpt>
      <trkpt lat="47.87974" lon="0.57159">
        <ele>152</ele>
        <time>2021-09-17T14:26:23+02:00</time>
      </trkpt>
      <trkpt lat="47.87903" lon="0.57085">
        <ele>154</ele>
        <time>2021-09-17T14:26:28+02:00</time>
      </trkpt>
      <trkpt lat="47.87848" lon="0.57018">
        <ele>155</ele>
        <time>2021-09-17T14:26:33+02:00</time>
      </trkpt>
      <trkpt lat="47.87749" lon="0.56875">
        <ele>156</ele>
        <time>2021-09-17T14:26:38+02:00</time>
      </trkpt>
      <trkpt lat="47.87729" lon="0.56921">
        <ele>157</ele>
        <time>2021-09-17T14:26:43+02:00</time>
      </trkpt>
      <trkpt lat="47.87718" lon="0.56981">
        <ele>157</ele>
        <time>2021-09-17T14:26:48+02:00</time>
      </trkpt>
      <trkpt lat="47.87688" lon="0.57076">
        <ele>158</ele>
        <time>2021-09-17T14:26:53+02:00</time>
      </trkpt>
      <trkpt lat="47.87637" lon="0.5716">
        <ele>158</ele>
        <time>2021-09-17T14:26:58+02:00</time>
      </trkpt>
      <trkpt lat="47.87458" lon="0.57569">
        <ele>155</ele>
        <time>2021-09-17T14:27:03+02:00</time>
      </trkpt>
      <trkpt lat="47.8748" lon="0.57694">
        <ele>153</ele>
        <time>2021-09-17T14:27:08+02:00</time>
      </trkpt>
      <trkpt lat="47.87484" lon="0.57743">
        <ele>152</ele>
        <time>2021-09-17T14:27:13+02:00</time>
      </trkpt>
      <trkpt lat="47.87493" lon="0.57859">
        <ele>150</ele>
        <time>2021-09-17T14:27:18+02:00</time>
      </trkpt>
      <trkpt lat="47.87521" lon="0.58169">
        <ele>149</ele>
        <time>2021-09-17T14:27:23+02:00</time>
      </trkpt>
      <trkpt lat="47.87532" lon="0.58225">
        <ele>147</ele>
        <time>2021-09-17T14:27:28+02:00</time>
      </trkpt>
      <trkpt lat="47.8752" lon="0.58282">
        <ele>146</ele>
        <time>2021-09-17T14:27:33+02:00</time>
      </trkpt>
      <trkpt lat="47.87532" lon="0.58352">
        <ele>143</ele>
        <time>2021-09-17T14:27:38+02:00</time>
      </trkpt>
      <trkpt lat="47.87528" lon="0.5838">
        <ele>142</ele>
        <time>2021-09-17T14:27:43+02:00</time>
      </trkpt>
      <trkpt lat="47.87499" lon="0.58469">
        <ele>140</ele>
        <time>2021-09-17T14:27:48+02:00</time>
      </trkpt>
      <trkpt lat="47.87458" lon="0.58599">
        <ele>128</ele>
        <time>2021-09-17T14:27:53+02:00</time>
      </trkpt>
      <trkpt lat="47.87445" lon="0.58623">
        <ele>125</ele>
        <time>2021-09-17T14:27:58+02:00</time>
      </trkpt>
      <trkpt lat="47.87387" lon="0.58689">
        <ele>118</ele>
        <time>2021-09-17T14:28:03+02:00</time>
      </trkpt>
      <trkpt lat="47.87394" lon="0.5881">
        <ele>112</ele>
        <time>2021-09-17T14:28:08+02:00</time>
      </trkpt>
      <trkpt lat="47.87363" lon="0.58857">
        <ele>111</ele>
        <time>2021-09-17T14:28:13+02:00</time>
      </trkpt>
      <trkpt lat="47.8739" lon="0.58923">
        <ele>109</ele>
        <time>2021-09-17T14:28:18+02:00</time>
      </trkpt>
      <trkpt lat="47.87343" lon="0.58961">
        <ele>107</ele>
        <time>2021-09-17T14:28:23+02:00</time>
      </trkpt>
      <trkpt lat="47.87251" lon="0.59012">
        <ele>102</ele>
        <time>2021-09-17T14:28:28+02:00</time>
      </trkpt>
      <trkpt lat="47.8717" lon="0.59054">
        <ele>103</ele>
        <time>2021-09-17T14:28:33+02:00</time>
      </trkpt>
      <trkpt lat="47.87032" lon="0.59103">
        <ele>105</ele>
        <time>2021-09-17T14:28:38+02:00</time>
      </trkpt>
      <trkpt lat="47.86969" lon="0.59114">
        <ele>106</ele>
        <time>2021-09-17T14:28:43+02:00</time>
      </trkpt>
      <trkpt lat="47.86801" lon="0.59087">
        <ele>101</ele>
        <time>2021-09-17T14:28:48+02:00</time>
      </trkpt>
      <trkpt lat="47.86762" lon="0.59084">
        <ele>100</ele>
        <time>2021-09-17T14:28:53+02:00</time>
      </trkpt>
      <trkpt lat="47.86764" lon="0.5912">
        <ele>100</ele>
        <time>2021-09-17T14:28:58+02:00</time>
      </trkpt>
      <trkpt lat="47.8676" lon="0.5915">
        <ele>100</ele>
        <time>2021-09-17T14:29:03+02:00</time>
      </trkpt>
      <trkpt lat="47.8675" lon="0.59162">
        <ele>100</ele>
        <time>2021-09-17T14:29:08+02:00</time>
      </trkpt>
      <trkpt lat="47.86733" lon="0.59167">
        <ele>100</ele>
        <time>2021-09-17T14:29:13+02:00</time>
      </trkpt>
      <trkpt lat="47.8664" lon="0.59201">
        <ele>104</ele>
        <time>2021-09-17T14:29:18+02:00</time>
      </trkpt>
      <trkpt lat="47.86618" lon="0.59229">
        <ele>107</ele>
        <time>2021-09-17T14:29:23+02:00</time>
      </trkpt>
      <trkpt lat="47.86561" lon="0.59088">
        <ele>97</ele>
        <time>2021-09-17T14:29:28+02:00</time>
      </trkpt>
      <trkpt lat="47.86513" lon="0.58896">
        <ele>97</ele>
        <time>2021-09-17T14:29:33+02:00</time>
      </trkpt>
      <trkpt lat="47.86467" lon="0.5891">
        <ele>97</ele>
        <time>2021-09-17T14:29:38+02:00</time>
      </trkpt>
      <trkpt lat="47.86475" lon="0.58792">
        <ele>107</ele>
        <time>2021-09-17T14:29:43+02:00</time>
      </trkpt>
      <trkpt lat="47.86501" lon="0.5871">
        <ele>115</ele>
        <time>2021-09-17T14:29:48+02:00</time>
      </trkpt>
      <trkpt lat="47.86433" lon="0.587">
        <ele>122</ele>
        <time>2021-09-17T14:29:53+02:00</time>
      </trkpt>
      <trkpt lat="47.86353" lon="0.58706">
        <ele>128</ele>
        <time>2021-09-17T14:29:58+02:00</time>
      </trkpt>
      <trkpt lat="47.86332" lon="0.58692">
        <ele>132</ele>
        <time>2021-09-17T14:30:03+02:00</time>
      </trkpt>
      <trkpt lat="47.86324" lon="0.58667">
        <ele>135</ele>
        <time>2021-09-17T14:30:08+02:00</time>
      </trkpt>
      <trkpt lat="47.86326" lon="0.58556">
        <ele>142</ele>
        <time>2021-09-17T14:30:13+02:00</time>
      </trkpt>
      <trkpt lat="47.8635" lon="0.58445">
        <ele>149</ele>
        <time>2021-09-17T14:30:18+02:00</time>
      </trkpt>
      <trkpt lat="47.86364" lon="0.58379">
        <ele>151</ele>
        <time>2021-09-17T14:30:23+02:00</time>
      </trkpt>
      <trkpt lat="47.86354" lon="0.58284">
        <ele>151</ele>
        <time>2021-09-17T14:30:28+02:00</time>
      </trkpt>
      <trkpt lat="47.86355" lon="0.5817">
        <ele>152</ele>
        <time>2021-09-17T14:30:33+02:00</time>
      </trkpt>
      <trkpt lat="47.86357" lon="0.58045">
        <ele>151</ele>
        <time>2021-09-17T14:30:38+02:00</time>
      </trkpt>
      <trkpt lat="47.86341" lon="0.57956">
        <ele>151</ele>
        <time>2021-09-17T14:30:43+02:00</time>
      </trkpt>
      <trkpt lat="47.86291" lon="0.57867">
        <ele>151</ele>
        <time>2021-09-17T14:30:48+02:00</time>
      </trkpt>
      <trkpt lat="47.86485" lon="0.57616">
        <ele>155</ele>
        <time>2021-09-17T14:30:53+02:00</time>
      </trkpt>
      <trkpt lat="47.86573" lon="0.57661">
        <ele>156</ele>
        <time>2021-09-17T14:30:58+02:00</time>
      </trkpt>
      <trkpt lat="47.86663" lon="0.57705">
        <ele>156</ele>
        <time>2021-09-17T14:31:03+02:00</time>
      </trkpt>
      <trkpt lat="47.86783" lon="0.57703">
        <ele>158</ele>
        <time>2021-09-17T14:31:08+02:00</time>
      </trkpt>
      <trkpt lat="47.86826" lon="0.57701">
        <ele>158</ele>
        <time>2021-09-17T14:31:13+02:00</time>
      </trkpt>
      <trkpt lat="47.86814" lon="0.57665">
        <ele>158</ele>
        <time>2021-09-17T14:31:18+02:00</time>
      </trkpt>
      <trkpt lat="47.86794" lon="0.57563">
        <ele>155</ele>
        <time>2021-09-17T14:31:23+02:00</time>
      </trkpt>
      <trkpt lat="47.86772" lon="0.57461">
        <ele>154</ele>
        <time>2021-09-17T14:31:28+02:00</time>
      </trkpt>
      <trkpt lat="47.86778" lon="0.57353">
        <ele>153</ele>
        <time>2021-09-17T14:31:33+02:00</time>
      </trkpt>
      <trkpt lat="47.86792" lon="0.57245">
        <ele>150</ele>
        <time>2021-09-17T14:31:38+02:00</time>
      </trkpt>
      <trkpt lat="47.868" lon="0.5712">
        <ele>142</ele>
        <time>2021-09-17T14:31:43+02:00</time>
      </trkpt>
      <trkpt lat="47.8681" lon="0.57061">
        <ele>139</ele>
        <time>2021-09-17T14:31:48+02:00</time>
      </trkpt>
      <trkpt lat="47.8681" lon="0.57038">
        <ele>138</ele>
        <time>2021-09-17T14:31:53+02:00</time>
      </trkpt>
      <trkpt lat="47.86776" lon="0.56813">
        <ele>137</ele>
        <time>2021-09-17T14:31:58+02:00</time>
      </trkpt>
      <trkpt lat="47.86763" lon="0.56753">
        <ele>141</ele>
        <time>2021-09-17T14:32:03+02:00</time>
      </trkpt>
      <trkpt lat="47.86745" lon="0.56707">
        <ele>145</ele>
        <time>2021-09-17T14:32:08+02:00</time>
      </trkpt>
      <trkpt lat="47.86729" lon="0.56648">
        <ele>149</ele>
        <time>2021-09-17T14:32:13+02:00</time>
      </trkpt>
      <trkpt lat="47.86714" lon="0.56642">
        <ele>150</ele>
        <time>2021-09-17T14:32:18+02:00</time>
      </trkpt>
      <trkpt lat="47.86715" lon="0.566">
        <ele>151</ele>
        <time>2021-09-17T14:32:23+02:00</time>
      </trkpt>
    </trkseg>
  </trk>
  <trk>
    <name><![CDATA[Chemin Jericho]]></name>
    <extensions>
      <line xmlns="http://www.topografix.com/GPX/gpx_style/0/2">
        <color>00FF00</color>
        <width>4</width>
      </line>
    </extensions>
    <trkseg>
      <trkpt lat="47.86715" lon="0.56593">
        <ele>151</ele>
        <time>2021-09-17T08:39:31+02:00</time>
      </trkpt>
      <trkpt lat="47.86712" lon="0.56578">
        <ele>151</ele>
        <time>2021-09-17T08:39:36+02:00</time>
      </trkpt>
      <trkpt lat="47.86705" lon="0.56571">
        <ele>152</ele>
        <time>2021-09-17T08:39:41+02:00</time>
      </trkpt>
      <trkpt lat="47.86698" lon="0.56561">
        <ele>152</ele>
        <time>2021-09-17T08:39:46+02:00</time>
      </trkpt>
      <trkpt lat="47.86552" lon="0.56327">
        <ele>153</ele>
        <time>2021-09-17T08:39:51+02:00</time>
      </trkpt>
      <trkpt lat="47.86504" lon="0.55914">
        <ele>154</ele>
        <time>2021-09-17T08:39:56+02:00</time>
      </trkpt>
      <trkpt lat="47.86493" lon="0.5587">
        <ele>155</ele>
        <time>2021-09-17T08:40:01+02:00</time>
      </trkpt>
      <trkpt lat="47.8648" lon="0.55834">
        <ele>155</ele>
        <time>2021-09-17T08:40:06+02:00</time>
      </trkpt>
      <trkpt lat="47.86488" lon="0.55821">
        <ele>155</ele>
        <time>2021-09-17T08:40:11+02:00</time>
      </trkpt>
      <trkpt lat="47.86492" lon="0.55806">
        <ele>156</ele>
        <time>2021-09-17T08:40:16+02:00</time>
      </trkpt>
      <trkpt lat="47.86496" lon="0.55744">
        <ele>156</ele>
        <time>2021-09-17T08:40:21+02:00</time>
      </trkpt>
      <trkpt lat="47.86665" lon="0.55757">
        <ele>155</ele>
        <time>2021-09-17T08:40:26+02:00</time>
      </trkpt>
      <trkpt lat="47.86942" lon="0.55643">
        <ele>154</ele>
        <time>2021-09-17T08:40:31+02:00</time>
      </trkpt>
      <trkpt lat="47.87061" lon="0.55581">
        <ele>157</ele>
        <time>2021-09-17T08:40:36+02:00</time>
      </trkpt>
      <trkpt lat="47.87122" lon="0.55553">
        <ele>159</ele>
        <time>2021-09-17T08:40:41+02:00</time>
      </trkpt>
      <trkpt lat="47.87155" lon="0.55538">
        <ele>159</ele>
        <time>2021-09-17T08:40:46+02:00</time>
      </trkpt>
      <trkpt lat="47.8717" lon="0.55532">
        <ele>160</ele>
        <time>2021-09-17T08:40:51+02:00</time>
      </trkpt>
      <trkpt lat="47.87185" lon="0.55531">
        <ele>159</ele>
        <time>2021-09-17T08:40:56+02:00</time>
      </trkpt>
      <trkpt lat="47.87204" lon="0.55529">
        <ele>159</ele>
        <time>2021-09-17T08:41:01+02:00</time>
      </trkpt>
      <trkpt lat="47.87222" lon="0.55536">
        <ele>159</ele>
        <time>2021-09-17T08:41:06+02:00</time>
      </trkpt>
      <trkpt lat="47.87231" lon="0.55551">
        <ele>159</ele>
        <time>2021-09-17T08:41:11+02:00</time>
      </trkpt>
      <trkpt lat="47.8724" lon="0.55575">
        <ele>160</ele>
        <time>2021-09-17T08:41:16+02:00</time>
      </trkpt>
      <trkpt lat="47.87282" lon="0.55584">
        <ele>160</ele>
        <time>2021-09-17T08:41:21+02:00</time>
      </trkpt>
      <trkpt lat="47.87322" lon="0.55598">
        <ele>161</ele>
        <time>2021-09-17T08:41:26+02:00</time>
      </trkpt>
      <trkpt lat="47.87482" lon="0.55659">
        <ele>160</ele>
        <time>2021-09-17T08:41:31+02:00</time>
      </trkpt>
      <trkpt lat="47.87598" lon="0.5568">
        <ele>154</ele>
        <time>2021-09-17T08:41:36+02:00</time>
      </trkpt>
      <trkpt lat="47.87638" lon="0.55679">
        <ele>153</ele>
        <time>2021-09-17T08:41:41+02:00</time>
      </trkpt>
      <trkpt lat="47.87658" lon="0.55681">
        <ele>152</ele>
        <time>2021-09-17T08:41:46+02:00</time>
      </trkpt>
      <trkpt lat="47.87681" lon="0.55678">
        <ele>151</ele>
        <time>2021-09-17T08:41:51+02:00</time>
      </trkpt>
      <trkpt lat="47.87731" lon="0.55666">
        <ele>149</ele>
        <time>2021-09-17T08:41:56+02:00</time>
      </trkpt>
      <trkpt lat="47.87803" lon="0.55666">
        <ele>145</ele>
        <time>2021-09-17T08:42:01+02:00</time>
      </trkpt>
      <trkpt lat="47.87923" lon="0.55558">
        <ele>151</ele>
        <time>2021-09-17T08:42:06+02:00</time>
      </trkpt>
      <trkpt lat="47.8794" lon="0.55548">
        <ele>151</ele>
        <time>2021-09-17T08:42:11+02:00</time>
      </trkpt>
      <trkpt lat="47.87962" lon="0.55547">
        <ele>152</ele>
        <time>2021-09-17T08:42:16+02:00</time>
      </trkpt>
      <trkpt lat="47.87988" lon="0.55552">
        <ele>153</ele>
        <time>2021-09-17T08:42:21+02:00</time>
      </trkpt>
      <trkpt lat="47.88006" lon="0.55566">
        <ele>154</ele>
        <time>2021-09-17T08:42:26+02:00</time>
      </trkpt>
      <trkpt lat="47.88059" lon="0.55612">
        <ele>155</ele>
        <time>2021-09-17T08:42:31+02:00</time>
      </trkpt>
      <trkpt lat="47.881" lon="0.5567">
        <ele>154</ele>
        <time>2021-09-17T08:42:36+02:00</time>
      </trkpt>
      <trkpt lat="47.88147" lon="0.55717">
        <ele>155</ele>
        <time>2021-09-17T08:42:41+02:00</time>
      </trkpt>
      <trkpt lat="47.8823" lon="0.55802">
        <ele>154</ele>
        <time>2021-09-17T08:42:46+02:00</time>
      </trkpt>
      <trkpt lat="47.88273" lon="0.55846">
        <ele>153</ele>
        <time>2021-09-17T08:42:51+02:00</time>
      </trkpt>
      <trkpt lat="47.88319" lon="0.55909">
        <ele>153</ele>
        <time>2021-09-17T08:42:56+02:00</time>
      </trkpt>
      <trkpt lat="47.88345" lon="0.5593">
        <ele>153</ele>
        <time>2021-09-17T08:43:01+02:00</time>
      </trkpt>
      <trkpt lat="47.88379" lon="0.55947">
        <ele>153</ele>
        <time>2021-09-17T08:43:06+02:00</time>
      </trkpt>
      <trkpt lat="47.88462" lon="0.55951">
        <ele>155</ele>
        <time>2021-09-17T08:43:11+02:00</time>
      </trkpt>
      <trkpt lat="47.88534" lon="0.55951">
        <ele>156</ele>
        <time>2021-09-17T08:43:16+02:00</time>
      </trkpt>
      <trkpt lat="47.88572" lon="0.55965">
        <ele>156</ele>
        <time>2021-09-17T08:43:21+02:00</time>
      </trkpt>
      <trkpt lat="47.88601" lon="0.55984">
        <ele>156</ele>
        <time>2021-09-17T08:43:26+02:00</time>
      </trkpt>
      <trkpt lat="47.88629" lon="0.56003">
        <ele>158</ele>
        <time>2021-09-17T08:43:31+02:00</time>
      </trkpt>
      <trkpt lat="47.88653" lon="0.56015">
        <ele>159</ele>
        <time>2021-09-17T08:43:36+02:00</time>
      </trkpt>
      <trkpt lat="47.88724" lon="0.56033">
        <ele>160</ele>
        <time>2021-09-17T08:43:41+02:00</time>
      </trkpt>
      <trkpt lat="47.88639" lon="0.56096">
        <ele>159</ele>
        <time>2021-09-17T08:43:46+02:00</time>
      </trkpt>
      <trkpt lat="47.88687" lon="0.56363">
        <ele>160</ele>
        <time>2021-09-17T08:43:51+02:00</time>
      </trkpt>
      <trkpt lat="47.88698" lon="0.56385">
        <ele>160</ele>
        <time>2021-09-17T08:43:56+02:00</time>
      </trkpt>
      <trkpt lat="47.88699" lon="0.56405">
        <ele>160</ele>
        <time>2021-09-17T08:44:01+02:00</time>
      </trkpt>
      <trkpt lat="47.88694" lon="0.56555">
        <ele>160</ele>
        <time>2021-09-17T08:44:06+02:00</time>
      </trkpt>
      <trkpt lat="47.88702" lon="0.56679">
        <ele>159</ele>
        <time>2021-09-17T08:44:11+02:00</time>
      </trkpt>
      <trkpt lat="47.887" lon="0.56763">
        <ele>157</ele>
        <time>2021-09-17T08:44:16+02:00</time>
      </trkpt>
      <trkpt lat="47.88697" lon="0.56803">
        <ele>157</ele>
        <time>2021-09-17T08:44:21+02:00</time>
      </trkpt>
      <trkpt lat="47.88694" lon="0.5683">
        <ele>156</ele>
        <time>2021-09-17T08:44:26+02:00</time>
      </trkpt>
      <trkpt lat="47.88698" lon="0.5689">
        <ele>156</ele>
        <time>2021-09-17T08:44:31+02:00</time>
      </trkpt>
      <trkpt lat="47.8871" lon="0.56981">
        <ele>154</ele>
        <time>2021-09-17T08:44:36+02:00</time>
      </trkpt>
      <trkpt lat="47.88717" lon="0.57027">
        <ele>154</ele>
        <time>2021-09-17T08:44:41+02:00</time>
      </trkpt>
      <trkpt lat="47.88729" lon="0.57051">
        <ele>155</ele>
        <time>2021-09-17T08:44:46+02:00</time>
      </trkpt>
      <trkpt lat="47.88766" lon="0.57161">
        <ele>155</ele>
        <time>2021-09-17T08:44:51+02:00</time>
      </trkpt>
      <trkpt lat="47.8872" lon="0.57202">
        <ele>155</ele>
        <time>2021-09-17T08:44:56+02:00</time>
      </trkpt>
      <trkpt lat="47.88672" lon="0.57238">
        <ele>156</ele>
        <time>2021-09-17T08:45:01+02:00</time>
      </trkpt>
      <trkpt lat="47.88616" lon="0.57273">
        <ele>152</ele>
        <time>2021-09-17T08:45:06+02:00</time>
      </trkpt>
      <trkpt lat="47.88598" lon="0.57301">
        <ele>150</ele>
        <time>2021-09-17T08:45:11+02:00</time>
      </trkpt>
      <trkpt lat="47.88573" lon="0.57373">
        <ele>149</ele>
        <time>2021-09-17T08:45:16+02:00</time>
      </trkpt>
      <trkpt lat="47.88573" lon="0.57373">
        <ele>149</ele>
        <time>2021-09-17T08:45:21+02:00</time>
      </trkpt>
      <trkpt lat="47.88565" lon="0.57398">
        <ele>148</ele>
        <time>2021-09-17T08:45:26+02:00</time>
      </trkpt>
      <trkpt lat="47.88405" lon="0.57306">
        <ele>132</ele>
        <time>2021-09-17T08:45:31+02:00</time>
      </trkpt>
      <trkpt lat="47.88344" lon="0.57247">
        <ele>132</ele>
        <time>2021-09-17T08:45:36+02:00</time>
      </trkpt>
      <trkpt lat="47.88248" lon="0.57211">
        <ele>139</ele>
        <time>2021-09-17T08:45:41+02:00</time>
      </trkpt>
      <trkpt lat="47.88151" lon="0.5718">
        <ele>145</ele>
        <time>2021-09-17T08:45:46+02:00</time>
      </trkpt>
      <trkpt lat="47.88093" lon="0.57161">
        <ele>149</ele>
        <time>2021-09-17T08:45:51+02:00</time>
      </trkpt>
      <trkpt lat="47.88031" lon="0.57162">
        <ele>151</ele>
        <time>2021-09-17T08:45:56+02:00</time>
      </trkpt>
      <trkpt lat="47.87998" lon="0.57161">
        <ele>151</ele>
        <time>2021-09-17T08:46:01+02:00</time>
      </trkpt>
      <trkpt lat="47.87974" lon="0.57159">
        <ele>152</ele>
        <time>2021-09-17T08:46:06+02:00</time>
      </trkpt>
      <trkpt lat="47.87911" lon="0.57091">
        <ele>154</ele>
        <time>2021-09-17T08:46:11+02:00</time>
      </trkpt>
      <trkpt lat="47.87873" lon="0.57053">
        <ele>155</ele>
        <time>2021-09-17T08:46:16+02:00</time>
      </trkpt>
      <trkpt lat="47.87839" lon="0.57007">
        <ele>156</ele>
        <time>2021-09-17T08:46:21+02:00</time>
      </trkpt>
      <trkpt lat="47.87749" lon="0.56875">
        <ele>156</ele>
        <time>2021-09-17T08:46:26+02:00</time>
      </trkpt>
      <trkpt lat="47.87738" lon="0.56895">
        <ele>157</ele>
        <time>2021-09-17T08:46:31+02:00</time>
      </trkpt>
      <trkpt lat="47.87729" lon="0.56921">
        <ele>157</ele>
        <time>2021-09-17T08:46:36+02:00</time>
      </trkpt>
      <trkpt lat="47.87718" lon="0.56981">
        <ele>157</ele>
        <time>2021-09-17T08:46:41+02:00</time>
      </trkpt>
      <trkpt lat="47.87688" lon="0.57076">
        <ele>158</ele>
        <time>2021-09-17T08:46:46+02:00</time>
      </trkpt>
      <trkpt lat="47.87678" lon="0.57098">
        <ele>158</ele>
        <time>2021-09-17T08:46:51+02:00</time>
      </trkpt>
      <trkpt lat="47.87665" lon="0.57116">
        <ele>158</ele>
        <time>2021-09-17T08:46:56+02:00</time>
      </trkpt>
      <trkpt lat="47.87641" lon="0.57153">
        <ele>158</ele>
        <time>2021-09-17T08:47:01+02:00</time>
      </trkpt>
      <trkpt lat="47.87619" lon="0.572">
        <ele>158</ele>
        <time>2021-09-17T08:47:06+02:00</time>
      </trkpt>
      <trkpt lat="47.87592" lon="0.57259">
        <ele>158</ele>
        <time>2021-09-17T08:47:11+02:00</time>
      </trkpt>
      <trkpt lat="47.87569" lon="0.57312">
        <ele>157</ele>
        <time>2021-09-17T08:47:16+02:00</time>
      </trkpt>
      <trkpt lat="47.87524" lon="0.57413">
        <ele>156</ele>
        <time>2021-09-17T08:47:21+02:00</time>
      </trkpt>
      <trkpt lat="47.87458" lon="0.57569">
        <ele>155</ele>
        <time>2021-09-17T08:47:26+02:00</time>
      </trkpt>
      <trkpt lat="47.87464" lon="0.57584">
        <ele>155</ele>
        <time>2021-09-17T08:47:31+02:00</time>
      </trkpt>
      <trkpt lat="47.87469" lon="0.57623">
        <ele>154</ele>
        <time>2021-09-17T08:47:36+02:00</time>
      </trkpt>
      <trkpt lat="47.8748" lon="0.57694">
        <ele>153</ele>
        <time>2021-09-17T08:47:41+02:00</time>
      </trkpt>
      <trkpt lat="47.87479" lon="0.57727">
        <ele>152</ele>
        <time>2021-09-17T08:47:46+02:00</time>
      </trkpt>
      <trkpt lat="47.87487" lon="0.57789">
        <ele>152</ele>
        <time>2021-09-17T08:47:51+02:00</time>
      </trkpt>
      <trkpt lat="47.87491" lon="0.57835">
        <ele>151</ele>
        <time>2021-09-17T08:47:56+02:00</time>
      </trkpt>
      <trkpt lat="47.87492" lon="0.5789">
        <ele>150</ele>
        <time>2021-09-17T08:48:01+02:00</time>
      </trkpt>
      <trkpt lat="47.87503" lon="0.57984">
        <ele>149</ele>
        <time>2021-09-17T08:48:06+02:00</time>
      </trkpt>
      <trkpt lat="47.87517" lon="0.58142">
        <ele>149</ele>
        <time>2021-09-17T08:48:11+02:00</time>
      </trkpt>
      <trkpt lat="47.87521" lon="0.58185">
        <ele>148</ele>
        <time>2021-09-17T08:48:16+02:00</time>
      </trkpt>
      <trkpt lat="47.87532" lon="0.58225">
        <ele>147</ele>
        <time>2021-09-17T08:48:21+02:00</time>
      </trkpt>
      <trkpt lat="47.87524" lon="0.58253">
        <ele>147</ele>
        <time>2021-09-17T08:48:26+02:00</time>
      </trkpt>
      <trkpt lat="47.8752" lon="0.58282">
        <ele>146</ele>
        <time>2021-09-17T08:48:31+02:00</time>
      </trkpt>
      <trkpt lat="47.87532" lon="0.58352">
        <ele>143</ele>
        <time>2021-09-17T08:48:36+02:00</time>
      </trkpt>
      <trkpt lat="47.87528" lon="0.5838">
        <ele>142</ele>
        <time>2021-09-17T08:48:41+02:00</time>
      </trkpt>
      <trkpt lat="47.87517" lon="0.58411">
        <ele>142</ele>
        <time>2021-09-17T08:48:46+02:00</time>
      </trkpt>
      <trkpt lat="47.87499" lon="0.58469">
        <ele>140</ele>
        <time>2021-09-17T08:48:51+02:00</time>
      </trkpt>
      <trkpt lat="47.87458" lon="0.58599">
        <ele>128</ele>
        <time>2021-09-17T08:48:56+02:00</time>
      </trkpt>
      <trkpt lat="47.87445" lon="0.58623">
        <ele>125</ele>
        <time>2021-09-17T08:49:01+02:00</time>
      </trkpt>
      <trkpt lat="47.87423" lon="0.58649">
        <ele>123</ele>
        <time>2021-09-17T08:49:06+02:00</time>
      </trkpt>
      <trkpt lat="47.87404" lon="0.58669">
        <ele>120</ele>
        <time>2021-09-17T08:49:11+02:00</time>
      </trkpt>
      <trkpt lat="47.87387" lon="0.58689">
        <ele>118</ele>
        <time>2021-09-17T08:49:16+02:00</time>
      </trkpt>
      <trkpt lat="47.87386" lon="0.58713">
        <ele>116</ele>
        <time>2021-09-17T08:49:21+02:00</time>
      </trkpt>
      <trkpt lat="47.8739" lon="0.58745">
        <ele>114</ele>
        <time>2021-09-17T08:49:26+02:00</time>
      </trkpt>
      <trkpt lat="47.87393" lon="0.58771">
        <ele>113</ele>
        <time>2021-09-17T08:49:31+02:00</time>
      </trkpt>
      <trkpt lat="47.87394" lon="0.5881">
        <ele>112</ele>
        <time>2021-09-17T08:49:36+02:00</time>
      </trkpt>
      <trkpt lat="47.87363" lon="0.58857">
        <ele>111</ele>
        <time>2021-09-17T08:49:41+02:00</time>
      </trkpt>
      <trkpt lat="47.8739" lon="0.58923">
        <ele>109</ele>
        <time>2021-09-17T08:49:46+02:00</time>
      </trkpt>
      <trkpt lat="47.87377" lon="0.58936">
        <ele>108</ele>
        <time>2021-09-17T08:49:51+02:00</time>
      </trkpt>
      <trkpt lat="47.87361" lon="0.58948">
        <ele>108</ele>
        <time>2021-09-17T08:49:56+02:00</time>
      </trkpt>
      <trkpt lat="47.87332" lon="0.58965">
        <ele>107</ele>
        <time>2021-09-17T08:50:01+02:00</time>
      </trkpt>
      <trkpt lat="47.87251" lon="0.59012">
        <ele>102</ele>
        <time>2021-09-17T08:50:06+02:00</time>
      </trkpt>
      <trkpt lat="47.8717" lon="0.59054">
        <ele>103</ele>
        <time>2021-09-17T08:50:11+02:00</time>
      </trkpt>
      <trkpt lat="47.87032" lon="0.59103">
        <ele>105</ele>
        <time>2021-09-17T08:50:16+02:00</time>
      </trkpt>
      <trkpt lat="47.86977" lon="0.59112">
        <ele>106</ele>
        <time>2021-09-17T08:50:21+02:00</time>
      </trkpt>
      <trkpt lat="47.86801" lon="0.59087">
        <ele>101</ele>
        <time>2021-09-17T08:50:26+02:00</time>
      </trkpt>
      <trkpt lat="47.86762" lon="0.59084">
        <ele>100</ele>
        <time>2021-09-17T08:50:31+02:00</time>
      </trkpt>
      <trkpt lat="47.86764" lon="0.5912">
        <ele>100</ele>
        <time>2021-09-17T08:50:36+02:00</time>
      </trkpt>
      <trkpt lat="47.8676" lon="0.5915">
        <ele>100</ele>
        <time>2021-09-17T08:50:41+02:00</time>
      </trkpt>
      <trkpt lat="47.8675" lon="0.59162">
        <ele>100</ele>
        <time>2021-09-17T08:50:46+02:00</time>
      </trkpt>
      <trkpt lat="47.86733" lon="0.59167">
        <ele>100</ele>
        <time>2021-09-17T08:50:51+02:00</time>
      </trkpt>
      <trkpt lat="47.86696" lon="0.59179">
        <ele>102</ele>
        <time>2021-09-17T08:50:56+02:00</time>
      </trkpt>
      <trkpt lat="47.86666" lon="0.59188">
        <ele>103</ele>
        <time>2021-09-17T08:51:01+02:00</time>
      </trkpt>
      <trkpt lat="47.8664" lon="0.59201">
        <ele>104</ele>
        <time>2021-09-17T08:51:06+02:00</time>
      </trkpt>
      <trkpt lat="47.86633" lon="0.59204">
        <ele>104</ele>
        <time>2021-09-17T08:51:11+02:00</time>
      </trkpt>
      <trkpt lat="47.86627" lon="0.59213">
        <ele>105</ele>
        <time>2021-09-17T08:51:16+02:00</time>
      </trkpt>
      <trkpt lat="47.86618" lon="0.59229">
        <ele>107</ele>
        <time>2021-09-17T08:51:21+02:00</time>
      </trkpt>
      <trkpt lat="47.86617" lon="0.5924">
        <ele>107</ele>
        <time>2021-09-17T08:51:26+02:00</time>
      </trkpt>
      <trkpt lat="47.86617" lon="0.59254">
        <ele>108</ele>
        <time>2021-09-17T08:51:31+02:00</time>
      </trkpt>
      <trkpt lat="47.86606" lon="0.59297">
        <ele>110</ele>
        <time>2021-09-17T08:51:36+02:00</time>
      </trkpt>
      <trkpt lat="47.86585" lon="0.5933">
        <ele>112</ele>
        <time>2021-09-17T08:51:41+02:00</time>
      </trkpt>
      <trkpt lat="47.86559" lon="0.59357">
        <ele>114</ele>
        <time>2021-09-17T08:51:46+02:00</time>
      </trkpt>
      <trkpt lat="47.8652" lon="0.5939">
        <ele>119</ele>
        <time>2021-09-17T08:51:51+02:00</time>
      </trkpt>
      <trkpt lat="47.86503" lon="0.59407">
        <ele>122</ele>
        <time>2021-09-17T08:51:56+02:00</time>
      </trkpt>
      <trkpt lat="47.86486" lon="0.59435">
        <ele>124</ele>
        <time>2021-09-17T08:52:01+02:00</time>
      </trkpt>
      <trkpt lat="47.86461" lon="0.59479">
        <ele>127</ele>
        <time>2021-09-17T08:52:06+02:00</time>
      </trkpt>
      <trkpt lat="47.86439" lon="0.59524">
        <ele>130</ele>
        <time>2021-09-17T08:52:11+02:00</time>
      </trkpt>
      <trkpt lat="47.8642" lon="0.59571">
        <ele>134</ele>
        <time>2021-09-17T08:52:16+02:00</time>
      </trkpt>
      <trkpt lat="47.86403" lon="0.59619">
        <ele>135</ele>
        <time>2021-09-17T08:52:21+02:00</time>
      </trkpt>
      <trkpt lat="47.86386" lon="0.59655">
        <ele>137</ele>
        <time>2021-09-17T08:52:26+02:00</time>
      </trkpt>
      <trkpt lat="47.86366" lon="0.59692">
        <ele>139</ele>
        <time>2021-09-17T08:52:31+02:00</time>
      </trkpt>
      <trkpt lat="47.86323" lon="0.59751">
        <ele>143</ele>
        <time>2021-09-17T08:52:36+02:00</time>
      </trkpt>
      <trkpt lat="47.86294" lon="0.59804">
        <ele>143</ele>
        <time>2021-09-17T08:52:41+02:00</time>
      </trkpt>
      <trkpt lat="47.86263" lon="0.59864">
        <ele>144</ele>
        <time>2021-09-17T08:52:46+02:00</time>
      </trkpt>
      <trkpt lat="47.86238" lon="0.59924">
        <ele>144</ele>
        <time>2021-09-17T08:52:51+02:00</time>
      </trkpt>
      <trkpt lat="47.8622" lon="0.59973">
        <ele>145</ele>
        <time>2021-09-17T08:52:56+02:00</time>
      </trkpt>
      <trkpt lat="47.86215" lon="0.59988">
        <ele>145</ele>
        <time>2021-09-17T08:53:01+02:00</time>
      </trkpt>
      <trkpt lat="47.86196" lon="0.59995">
        <ele>147</ele>
        <time>2021-09-17T08:53:06+02:00</time>
      </trkpt>
      <trkpt lat="47.86174" lon="0.60011">
        <ele>148</ele>
        <time>2021-09-17T08:53:11+02:00</time>
      </trkpt>
      <trkpt lat="47.86153" lon="0.6002">
        <ele>148</ele>
        <time>2021-09-17T08:53:16+02:00</time>
      </trkpt>
      <trkpt lat="47.86143" lon="0.60021">
        <ele>148</ele>
        <time>2021-09-17T08:53:21+02:00</time>
      </trkpt>
      <trkpt lat="47.86132" lon="0.60029">
        <ele>148</ele>
        <time>2021-09-17T08:53:26+02:00</time>
      </trkpt>
      <trkpt lat="47.86112" lon="0.60044">
        <ele>147</ele>
        <time>2021-09-17T08:53:31+02:00</time>
      </trkpt>
      <trkpt lat="47.86047" lon="0.6012">
        <ele>148</ele>
        <time>2021-09-17T08:53:36+02:00</time>
      </trkpt>
      <trkpt lat="47.86018" lon="0.60156">
        <ele>149</ele>
        <time>2021-09-17T08:53:41+02:00</time>
      </trkpt>
      <trkpt lat="47.85979" lon="0.60217">
        <ele>150</ele>
        <time>2021-09-17T08:53:46+02:00</time>
      </trkpt>
      <trkpt lat="47.85963" lon="0.60247">
        <ele>150</ele>
        <time>2021-09-17T08:53:51+02:00</time>
      </trkpt>
      <trkpt lat="47.85941" lon="0.60275">
        <ele>151</ele>
        <time>2021-09-17T08:53:56+02:00</time>
      </trkpt>
      <trkpt lat="47.85925" lon="0.60314">
        <ele>151</ele>
        <time>2021-09-17T08:54:01+02:00</time>
      </trkpt>
      <trkpt lat="47.85904" lon="0.6035">
        <ele>151</ele>
        <time>2021-09-17T08:54:06+02:00</time>
      </trkpt>
      <trkpt lat="47.85856" lon="0.60419">
        <ele>150</ele>
        <time>2021-09-17T08:54:11+02:00</time>
      </trkpt>
      <trkpt lat="47.85828" lon="0.60474">
        <ele>150</ele>
        <time>2021-09-17T08:54:16+02:00</time>
      </trkpt>
      <trkpt lat="47.85804" lon="0.60528">
        <ele>149</ele>
        <time>2021-09-17T08:54:21+02:00</time>
      </trkpt>
      <trkpt lat="47.85665" lon="0.60519">
        <ele>150</ele>
        <time>2021-09-17T08:54:26+02:00</time>
      </trkpt>
      <trkpt lat="47.85635" lon="0.6051">
        <ele>150</ele>
        <time>2021-09-17T08:54:31+02:00</time>
      </trkpt>
      <trkpt lat="47.85595" lon="0.60512">
        <ele>149</ele>
        <time>2021-09-17T08:54:36+02:00</time>
      </trkpt>
      <trkpt lat="47.85525" lon="0.60515">
        <ele>150</ele>
        <time>2021-09-17T08:54:41+02:00</time>
      </trkpt>
      <trkpt lat="47.85493" lon="0.60519">
        <ele>151</ele>
        <time>2021-09-17T08:54:46+02:00</time>
      </trkpt>
      <trkpt lat="47.85459" lon="0.60527">
        <ele>151</ele>
        <time>2021-09-17T08:54:51+02:00</time>
      </trkpt>
      <trkpt lat="47.85391" lon="0.60543">
        <ele>151</ele>
        <time>2021-09-17T08:54:56+02:00</time>
      </trkpt>
      <trkpt lat="47.85324" lon="0.60544">
        <ele>151</ele>
        <time>2021-09-17T08:55:01+02:00</time>
      </trkpt>
      <trkpt lat="47.85293" lon="0.60543">
        <ele>152</ele>
        <time>2021-09-17T08:55:06+02:00</time>
      </trkpt>
      <trkpt lat="47.85263" lon="0.60536">
        <ele>153</ele>
        <time>2021-09-17T08:55:11+02:00</time>
      </trkpt>
      <trkpt lat="47.85228" lon="0.60536">
        <ele>153</ele>
        <time>2021-09-17T08:55:16+02:00</time>
      </trkpt>
      <trkpt lat="47.85219" lon="0.60536">
        <ele>153</ele>
        <time>2021-09-17T08:55:21+02:00</time>
      </trkpt>
      <trkpt lat="47.85209" lon="0.60533">
        <ele>153</ele>
        <time>2021-09-17T08:55:26+02:00</time>
      </trkpt>
      <trkpt lat="47.85191" lon="0.60526">
        <ele>153</ele>
        <time>2021-09-17T08:55:31+02:00</time>
      </trkpt>
      <trkpt lat="47.85123" lon="0.60501">
        <ele>151</ele>
        <time>2021-09-17T08:55:36+02:00</time>
      </trkpt>
      <trkpt lat="47.84992" lon="0.60446">
        <ele>150</ele>
        <time>2021-09-17T08:55:41+02:00</time>
      </trkpt>
      <trkpt lat="47.84925" lon="0.60418">
        <ele>148</ele>
        <time>2021-09-17T08:55:46+02:00</time>
      </trkpt>
      <trkpt lat="47.84889" lon="0.60407">
        <ele>148</ele>
        <time>2021-09-17T08:55:51+02:00</time>
      </trkpt>
      <trkpt lat="47.84868" lon="0.60402">
        <ele>147</ele>
        <time>2021-09-17T08:55:56+02:00</time>
      </trkpt>
      <trkpt lat="47.84854" lon="0.60392">
        <ele>147</ele>
        <time>2021-09-17T08:56:01+02:00</time>
      </trkpt>
      <trkpt lat="47.84955" lon="0.60215">
        <ele>151</ele>
        <time>2021-09-17T08:56:06+02:00</time>
      </trkpt>
      <trkpt lat="47.85019" lon="0.60063">
        <ele>151</ele>
        <time>2021-09-17T08:56:11+02:00</time>
      </trkpt>
      <trkpt lat="47.85032" lon="0.60035">
        <ele>151</ele>
        <time>2021-09-17T08:56:16+02:00</time>
      </trkpt>
      <trkpt lat="47.85032" lon="0.60019">
        <ele>151</ele>
        <time>2021-09-17T08:56:21+02:00</time>
      </trkpt>
      <trkpt lat="47.85044" lon="0.59984">
        <ele>151</ele>
        <time>2021-09-17T08:56:26+02:00</time>
      </trkpt>
      <trkpt lat="47.85072" lon="0.59904">
        <ele>150</ele>
        <time>2021-09-17T08:56:31+02:00</time>
      </trkpt>
      <trkpt lat="47.85092" lon="0.59846">
        <ele>148</ele>
        <time>2021-09-17T08:56:36+02:00</time>
      </trkpt>
      <trkpt lat="47.85103" lon="0.5978">
        <ele>149</ele>
        <time>2021-09-17T08:56:41+02:00</time>
      </trkpt>
      <trkpt lat="47.85127" lon="0.59654">
        <ele>148</ele>
        <time>2021-09-17T08:56:46+02:00</time>
      </trkpt>
      <trkpt lat="47.85142" lon="0.59583">
        <ele>147</ele>
        <time>2021-09-17T08:56:51+02:00</time>
      </trkpt>
      <trkpt lat="47.85146" lon="0.5956">
        <ele>147</ele>
        <time>2021-09-17T08:56:56+02:00</time>
      </trkpt>
      <trkpt lat="47.85148" lon="0.59538">
        <ele>148</ele>
        <time>2021-09-17T08:57:01+02:00</time>
      </trkpt>
      <trkpt lat="47.85182" lon="0.59409">
        <ele>146</ele>
        <time>2021-09-17T08:57:06+02:00</time>
      </trkpt>
      <trkpt lat="47.85215" lon="0.59288">
        <ele>143</ele>
        <time>2021-09-17T08:57:11+02:00</time>
      </trkpt>
      <trkpt lat="47.85247" lon="0.59166">
        <ele>141</ele>
        <time>2021-09-17T08:57:16+02:00</time>
      </trkpt>
      <trkpt lat="47.85275" lon="0.59064">
        <ele>140</ele>
        <time>2021-09-17T08:57:21+02:00</time>
      </trkpt>
      <trkpt lat="47.85296" lon="0.59034">
        <ele>137</ele>
        <time>2021-09-17T08:57:26+02:00</time>
      </trkpt>
      <trkpt lat="47.85317" lon="0.59019">
        <ele>136</ele>
        <time>2021-09-17T08:57:31+02:00</time>
      </trkpt>
      <trkpt lat="47.85353" lon="0.58991">
        <ele>132</ele>
        <time>2021-09-17T08:57:36+02:00</time>
      </trkpt>
      <trkpt lat="47.85389" lon="0.58956">
        <ele>128</ele>
        <time>2021-09-17T08:57:41+02:00</time>
      </trkpt>
      <trkpt lat="47.85454" lon="0.58874">
        <ele>117</ele>
        <time>2021-09-17T08:57:46+02:00</time>
      </trkpt>
      <trkpt lat="47.8547" lon="0.58853">
        <ele>114</ele>
        <time>2021-09-17T08:57:51+02:00</time>
      </trkpt>
      <trkpt lat="47.85485" lon="0.58849">
        <ele>113</ele>
        <time>2021-09-17T08:57:56+02:00</time>
      </trkpt>
      <trkpt lat="47.85506" lon="0.58839">
        <ele>111</ele>
        <time>2021-09-17T08:58:01+02:00</time>
      </trkpt>
      <trkpt lat="47.85525" lon="0.58827">
        <ele>107</ele>
        <time>2021-09-17T08:58:06+02:00</time>
      </trkpt>
      <trkpt lat="47.8558" lon="0.58691">
        <ele>95</ele>
        <time>2021-09-17T08:58:11+02:00</time>
      </trkpt>
      <trkpt lat="47.85616" lon="0.58731">
        <ele>97</ele>
        <time>2021-09-17T08:58:16+02:00</time>
      </trkpt>
      <trkpt lat="47.85634" lon="0.58751">
        <ele>98</ele>
        <time>2021-09-17T08:58:21+02:00</time>
      </trkpt>
      <trkpt lat="47.85649" lon="0.58772">
        <ele>98</ele>
        <time>2021-09-17T08:58:26+02:00</time>
      </trkpt>
      <trkpt lat="47.85665" lon="0.58787">
        <ele>97</ele>
        <time>2021-09-17T08:58:31+02:00</time>
      </trkpt>
      <trkpt lat="47.85683" lon="0.58798">
        <ele>97</ele>
        <time>2021-09-17T08:58:36+02:00</time>
      </trkpt>
      <trkpt lat="47.85703" lon="0.58805">
        <ele>97</ele>
        <time>2021-09-17T08:58:41+02:00</time>
      </trkpt>
      <trkpt lat="47.85723" lon="0.58808">
        <ele>96</ele>
        <time>2021-09-17T08:58:46+02:00</time>
      </trkpt>
      <trkpt lat="47.85775" lon="0.58808">
        <ele>95</ele>
        <time>2021-09-17T08:58:51+02:00</time>
      </trkpt>
      <trkpt lat="47.85803" lon="0.58756">
        <ele>95</ele>
        <time>2021-09-17T08:58:56+02:00</time>
      </trkpt>
      <trkpt lat="47.85827" lon="0.58716">
        <ele>96</ele>
        <time>2021-09-17T08:59:01+02:00</time>
      </trkpt>
      <trkpt lat="47.85836" lon="0.58698">
        <ele>96</ele>
        <time>2021-09-17T08:59:06+02:00</time>
      </trkpt>
      <trkpt lat="47.85845" lon="0.58673">
        <ele>97</ele>
        <time>2021-09-17T08:59:11+02:00</time>
      </trkpt>
      <trkpt lat="47.85849" lon="0.58646">
        <ele>99</ele>
        <time>2021-09-17T08:59:16+02:00</time>
      </trkpt>
      <trkpt lat="47.85847" lon="0.58618">
        <ele>100</ele>
        <time>2021-09-17T08:59:21+02:00</time>
      </trkpt>
      <trkpt lat="47.85853" lon="0.58609">
        <ele>101</ele>
        <time>2021-09-17T08:59:26+02:00</time>
      </trkpt>
      <trkpt lat="47.85857" lon="0.58586">
        <ele>102</ele>
        <time>2021-09-17T08:59:31+02:00</time>
      </trkpt>
      <trkpt lat="47.85866" lon="0.5854">
        <ele>106</ele>
        <time>2021-09-17T08:59:36+02:00</time>
      </trkpt>
      <trkpt lat="47.85876" lon="0.58472">
        <ele>112</ele>
        <time>2021-09-17T08:59:41+02:00</time>
      </trkpt>
      <trkpt lat="47.85885" lon="0.58406">
        <ele>118</ele>
        <time>2021-09-17T08:59:46+02:00</time>
      </trkpt>
      <trkpt lat="47.859" lon="0.58332">
        <ele>123</ele>
        <time>2021-09-17T08:59:51+02:00</time>
      </trkpt>
      <trkpt lat="47.85913" lon="0.58294">
        <ele>125</ele>
        <time>2021-09-17T08:59:56+02:00</time>
      </trkpt>
      <trkpt lat="47.85928" lon="0.58258">
        <ele>129</ele>
        <time>2021-09-17T09:00:01+02:00</time>
      </trkpt>
      <trkpt lat="47.85959" lon="0.58218">
        <ele>135</ele>
        <time>2021-09-17T09:00:06+02:00</time>
      </trkpt>
      <trkpt lat="47.85993" lon="0.58178">
        <ele>138</ele>
        <time>2021-09-17T09:00:11+02:00</time>
      </trkpt>
      <trkpt lat="47.86012" lon="0.58159">
        <ele>139</ele>
        <time>2021-09-17T09:00:16+02:00</time>
      </trkpt>
      <trkpt lat="47.86023" lon="0.5815">
        <ele>140</ele>
        <time>2021-09-17T09:00:21+02:00</time>
      </trkpt>
      <trkpt lat="47.86031" lon="0.5814">
        <ele>141</ele>
        <time>2021-09-17T09:00:26+02:00</time>
      </trkpt>
      <trkpt lat="47.8607" lon="0.58109">
        <ele>142</ele>
        <time>2021-09-17T09:00:31+02:00</time>
      </trkpt>
      <trkpt lat="47.86139" lon="0.58032">
        <ele>145</ele>
        <time>2021-09-17T09:00:36+02:00</time>
      </trkpt>
      <trkpt lat="47.86174" lon="0.57993">
        <ele>147</ele>
        <time>2021-09-17T09:00:41+02:00</time>
      </trkpt>
      <trkpt lat="47.86208" lon="0.57956">
        <ele>149</ele>
        <time>2021-09-17T09:00:46+02:00</time>
      </trkpt>
      <trkpt lat="47.86281" lon="0.57874">
        <ele>151</ele>
        <time>2021-09-17T09:00:51+02:00</time>
      </trkpt>
      <trkpt lat="47.86315" lon="0.57832">
        <ele>152</ele>
        <time>2021-09-17T09:00:56+02:00</time>
      </trkpt>
      <trkpt lat="47.86344" lon="0.57788">
        <ele>153</ele>
        <time>2021-09-17T09:01:01+02:00</time>
      </trkpt>
      <trkpt lat="47.86413" lon="0.57705">
        <ele>155</ele>
        <time>2021-09-17T09:01:06+02:00</time>
      </trkpt>
      <trkpt lat="47.86448" lon="0.57667">
        <ele>156</ele>
        <time>2021-09-17T09:01:11+02:00</time>
      </trkpt>
      <trkpt lat="47.86466" lon="0.5764">
        <ele>155</ele>
        <time>2021-09-17T09:01:16+02:00</time>
      </trkpt>
      <trkpt lat="47.86485" lon="0.57616">
        <ele>155</ele>
        <time>2021-09-17T09:01:21+02:00</time>
      </trkpt>
      <trkpt lat="47.86502" lon="0.5763">
        <ele>155</ele>
        <time>2021-09-17T09:01:26+02:00</time>
      </trkpt>
      <trkpt lat="47.86527" lon="0.57641">
        <ele>155</ele>
        <time>2021-09-17T09:01:31+02:00</time>
      </trkpt>
      <trkpt lat="47.86573" lon="0.57661">
        <ele>156</ele>
        <time>2021-09-17T09:01:36+02:00</time>
      </trkpt>
      <trkpt lat="47.86663" lon="0.57705">
        <ele>156</ele>
        <time>2021-09-17T09:01:41+02:00</time>
      </trkpt>
      <trkpt lat="47.867" lon="0.57708">
        <ele>157</ele>
        <time>2021-09-17T09:01:46+02:00</time>
      </trkpt>
      <trkpt lat="47.86742" lon="0.57707">
        <ele>157</ele>
        <time>2021-09-17T09:01:51+02:00</time>
      </trkpt>
      <trkpt lat="47.86783" lon="0.57703">
        <ele>158</ele>
        <time>2021-09-17T09:01:56+02:00</time>
      </trkpt>
      <trkpt lat="47.86826" lon="0.57701">
        <ele>158</ele>
        <time>2021-09-17T09:02:01+02:00</time>
      </trkpt>
      <trkpt lat="47.86819" lon="0.57687">
        <ele>158</ele>
        <time>2021-09-17T09:02:06+02:00</time>
      </trkpt>
      <trkpt lat="47.86814" lon="0.57665">
        <ele>158</ele>
        <time>2021-09-17T09:02:11+02:00</time>
      </trkpt>
      <trkpt lat="47.86805" lon="0.57612">
        <ele>156</ele>
        <time>2021-09-17T09:02:16+02:00</time>
      </trkpt>
      <trkpt lat="47.86794" lon="0.57563">
        <ele>155</ele>
        <time>2021-09-17T09:02:21+02:00</time>
      </trkpt>
      <trkpt lat="47.86784" lon="0.57519">
        <ele>154</ele>
        <time>2021-09-17T09:02:26+02:00</time>
      </trkpt>
      <trkpt lat="47.8678" lon="0.57499">
        <ele>154</ele>
        <time>2021-09-17T09:02:31+02:00</time>
      </trkpt>
      <trkpt lat="47.86778" lon="0.57481">
        <ele>154</ele>
        <time>2021-09-17T09:02:36+02:00</time>
      </trkpt>
      <trkpt lat="47.86775" lon="0.5744">
        <ele>154</ele>
        <time>2021-09-17T09:02:41+02:00</time>
      </trkpt>
      <trkpt lat="47.86778" lon="0.57353">
        <ele>153</ele>
        <time>2021-09-17T09:02:46+02:00</time>
      </trkpt>
      <trkpt lat="47.86789" lon="0.57271">
        <ele>151</ele>
        <time>2021-09-17T09:02:51+02:00</time>
      </trkpt>
      <trkpt lat="47.86794" lon="0.57196">
        <ele>147</ele>
        <time>2021-09-17T09:02:56+02:00</time>
      </trkpt>
      <trkpt lat="47.86797" lon="0.57156">
        <ele>145</ele>
        <time>2021-09-17T09:03:01+02:00</time>
      </trkpt>
      <trkpt lat="47.86797" lon="0.57113">
        <ele>142</ele>
        <time>2021-09-17T09:03:06+02:00</time>
      </trkpt>
      <trkpt lat="47.86807" lon="0.57082">
        <ele>140</ele>
        <time>2021-09-17T09:03:11+02:00</time>
      </trkpt>
      <trkpt lat="47.8681" lon="0.57061">
        <ele>139</ele>
        <time>2021-09-17T09:03:16+02:00</time>
      </trkpt>
      <trkpt lat="47.8681" lon="0.57038">
        <ele>138</ele>
        <time>2021-09-17T09:03:21+02:00</time>
      </trkpt>
      <trkpt lat="47.86776" lon="0.56813">
        <ele>137</ele>
        <time>2021-09-17T09:03:26+02:00</time>
      </trkpt>
      <trkpt lat="47.86763" lon="0.56753">
        <ele>141</ele>
        <time>2021-09-17T09:03:31+02:00</time>
      </trkpt>
      <trkpt lat="47.86757" lon="0.5673">
        <ele>143</ele>
        <time>2021-09-17T09:03:36+02:00</time>
      </trkpt>
      <trkpt lat="47.86745" lon="0.56707">
        <ele>145</ele>
        <time>2021-09-17T09:03:41+02:00</time>
      </trkpt>
      <trkpt lat="47.86736" lon="0.5668">
        <ele>147</ele>
        <time>2021-09-17T09:03:46+02:00</time>
      </trkpt>
      <trkpt lat="47.86729" lon="0.56648">
        <ele>149</ele>
        <time>2021-09-17T09:03:51+02:00</time>
      </trkpt>
      <trkpt lat="47.86714" lon="0.56642">
        <ele>150</ele>
        <time>2021-09-17T09:03:56+02:00</time>
      </trkpt>
      <trkpt lat="47.86715" lon="0.566">
        <ele>151</ele>
        <time>2021-09-17T09:04:01+02:00</time>
      </trkpt>
    </trkseg>
  </trk>
</gpx>